Time;durP1;ratioP1;P1;durP2;ratioP2;P2;SDS_P1;SDS_P2;PMS_P1;PMS_P2;Temp;Humidity;BMP_temperature;BMP_pressure;BME280_temperature;BME280_humidity;BME280_pressure;Samples;Min_cycle;Max_cycle;Signal;HPM_P1;HPM_P2
2021/12/25 00:00:51;;;;;;;20.23;9.77;;;;;;;4.16;71.56;94584.56;5055734;28;20189;-77
2021/12/25 00:03:18;;;;;;;17.23;10.03;;;;;;;4.30;72.05;94600.41;5059590;28;20179;-77
2021/12/25 00:05:48;;;;;;;21.17;10.33;;;;;;;4.40;71.90;94604.38;5058946;28;20171;-77
2021/12/25 00:08:13;;;;;;;20.73;9.97;;;;;;;4.39;71.33;94587.13;5055580;28;20198;-78
2021/12/25 00:10:39;;;;;;;20.70;9.93;;;;;;;4.64;70.98;94608.50;5064461;28;20650;-77
2021/12/25 00:13:07;;;;;;;22.37;11.40;;;;;;;4.79;70.01;94611.09;5059029;28;20186;-76
2021/12/25 00:15:32;;;;;;;18.20;10.13;;;;;;;4.55;69.86;94591.34;5064338;28;20245;-76
2021/12/25 00:17:58;;;;;;;19.87;10.47;;;;;;;4.67;70.01;94602.13;5064113;28;20267;-77
2021/12/25 00:20:23;;;;;;;23.40;10.37;;;;;;;4.88;69.68;94621.25;5063494;28;20628;-76
2021/12/25 00:22:48;;;;;;;18.27;9.67;;;;;;;4.83;69.69;94639.25;5064742;28;20167;-78
2021/12/25 00:25:14;;;;;;;18.27;9.90;;;;;;;4.82;69.61;94649.84;5060099;28;20183;-79
2021/12/25 00:27:58;;;;;;;20.90;10.37;;;;;;;4.83;69.64;94643.66;5058034;28;20226;-79
2021/12/25 00:30:35;;;;;;;16.30;9.43;;;;;;;4.77;69.54;94654.78;5063618;28;20170;-76
2021/12/25 00:33:05;;;;;;;17.67;9.03;;;;;;;4.66;69.77;94622.19;5058466;28;20182;-76
2021/12/25 00:35:31;;;;;;;21.50;9.57;;;;;;;4.82;69.27;94665.50;5061996;28;20183;-76
2021/12/25 00:37:56;;;;;;;22.47;11.20;;;;;;;3.81;69.40;94517.56;5066776;28;20227;-76
2021/12/25 00:40:25;;;;;;;23.10;9.97;;;;;;;4.20;71.26;94633.72;5055932;28;20183;-76
2021/12/25 00:42:50;;;;;;;21.40;9.33;;;;;;;4.11;72.06;94651.22;5062220;28;20656;-76
2021/12/25 00:45:16;;;;;;;18.03;9.13;;;;;;;4.22;71.60;94673.44;5055233;28;20353;-77
2021/12/25 00:47:42;;;;;;;17.80;10.23;;;;;;;4.21;71.83;94658.78;5063056;28;20257;-76
2021/12/25 00:50:08;;;;;;;13.73;8.40;;;;;;;4.04;72.43;94635.50;5060912;28;20181;-76
2021/12/25 00:52:33;;;;;;;15.70;8.90;;;;;;;4.01;72.48;94625.41;5065063;28;20229;-77
2021/12/25 00:55:01;;;;;;;17.20;8.07;;;;;;;4.19;72.06;94638.13;5063350;28;20174;-77
2021/12/25 00:57:26;;;;;;;15.27;8.43;;;;;;;4.17;71.61;94621.84;5052107;28;20171;-77
2021/12/25 00:59:51;;;;;;;19.33;8.50;;;;;;;4.31;71.52;94648.94;5056288;28;20236;-77
2021/12/25 01:02:17;;;;;;;20.23;9.17;;;;;;;4.30;71.65;94636.88;5055399;28;20175;-77
2021/12/25 01:04:42;;;;;;;16.23;9.13;;;;;;;4.33;71.28;94637.31;5067959;28;20621;-76
2021/12/25 01:07:08;;;;;;;14.97;8.37;;;;;;;4.34;71.45;94640.75;5068221;28;20206;-77
2021/12/25 01:09:33;;;;;;;18.67;9.07;;;;;;;4.38;71.31;94644.63;5065200;28;20181;-77
2021/12/25 01:11:59;;;;;;;15.93;8.57;;;;;;;4.32;70.89;94621.91;5062947;28;20196;-77
2021/12/25 01:14:35;;;;;;;19.00;9.20;;;;;;;4.41;71.05;94647.66;5061684;28;20561;-77
2021/12/25 01:17:23;;;;;;;26.67;12.87;;;;;;;4.29;70.54;94645.69;5058223;28;20186;-75
2021/12/25 01:20:14;;;;;;;20.63;10.77;;;;;;;4.08;71.38;94626.31;5061971;28;20616;-76
2021/12/25 01:30:31;;;;;;;35.20;16.10;;;;;;;3.95;73.21;94625.31;5062978;28;20183;-77
2021/12/25 01:33:23;;;;;;;39.00;18.50;;;;;;;3.68;74.37;94621.47;5061150;28;20581;-77
2021/12/25 01:38:39;;;;;;;35.03;17.00;;;;;;;3.73;73.80;94625.16;5066557;28;20583;-77
2021/12/25 01:41:41;;;;;;;37.60;18.87;;;;;;;3.73;73.69;94621.75;5061909;28;20732;-77
2021/12/25 01:49:28;;;;;;;53.63;24.60;;;;;;;3.64;73.90;94618.38;5059732;28;20680;-77
2021/12/25 01:51:53;;;;;;;48.70;25.07;;;;;;;3.58;74.15;94626.09;5069365;28;20182;-77
2021/12/25 01:54:19;;;;;;;59.57;24.87;;;;;;;3.63;74.23;94629.00;5069041;28;20181;-77
2021/12/25 01:56:46;;;;;;;50.33;22.03;;;;;;;3.40;75.21;94619.38;5063535;28;20167;-76
2021/12/25 01:59:12;;;;;;;61.03;25.97;;;;;;;3.16;76.01;94579.72;5055397;28;20171;-76
2021/12/25 02:01:37;;;;;;;77.10;42.83;;;;;;;3.20;76.25;94592.19;5063309;28;20181;-76
2021/12/25 02:04:03;;;;;;;560.03;291.13;;;;;;;3.09;76.88;94589.19;5059430;28;20214;-76
2021/12/25 02:06:28;;;;;;;678.03;484.23;;;;;;;3.27;76.90;94624.34;5069010;28;20185;-76
2021/12/25 02:08:54;;;;;;;408.20;369.87;;;;;;;3.23;76.90;94614.44;5066606;28;20178;-76
2021/12/25 02:11:20;;;;;;;191.90;174.43;;;;;;;2.96;77.51;94567.16;5068989;28;20174;-76
2021/12/25 02:13:46;;;;;;;178.67;159.60;;;;;;;3.06;78.01;94599.94;5058864;28;20545;-76
2021/12/25 02:16:17;;;;;;;149.83;119.03;;;;;;;3.23;77.93;94602.25;5069820;28;20256;-76
2021/12/25 02:21:19;;;;;;;1028.57;433.27;;;;;;;3.54;76.99;94598.81;5061971;28;20175;-76
2021/12/25 02:23:45;;;;;;;1266.27;578.03;;;;;;;3.47;76.88;94593.47;5063494;28;20213;-76
2021/12/25 02:26:12;;;;;;;1999.90;999.90;;;;;;;3.41;76.94;94578.56;5063942;28;20182;-76
2021/12/25 02:28:38;;;;;;;1999.90;999.90;;;;;;;3.65;77.17;94599.19;5059883;28;20175;-76
2021/12/25 02:31:09;;;;;;;1999.90;999.90;;;;;;;3.80;76.21;94605.25;5068814;28;20181;-76
2021/12/25 02:33:34;;;;;;;1292.90;591.73;;;;;;;3.86;75.90;94601.16;5059895;28;20171;-76
2021/12/25 02:36:03;;;;;;;1289.63;600.83;;;;;;;3.91;75.94;94601.41;5065739;28;20534;-76
2021/12/25 02:38:29;;;;;;;1999.90;999.90;;;;;;;3.87;76.30;94594.16;5058629;28;20191;-76
2021/12/25 02:40:54;;;;;;;1999.90;999.90;;;;;;;3.80;75.65;94573.22;5065350;28;20178;-76
2021/12/25 02:43:21;;;;;;;1478.60;734.00;;;;;;;3.97;75.79;94592.94;5068000;28;20253;-76
2021/12/25 02:45:46;;;;;;;1999.90;999.90;;;;;;;4.09;75.43;94601.91;5062609;28;20171;-76
2021/12/25 02:48:16;;;;;;;1999.90;999.90;;;;;;;4.14;75.19;94597.00;5058519;28;20225;-76
2021/12/25 02:50:42;;;;;;;1999.90;999.90;;;;;;;4.15;74.45;94598.59;5064266;28;20759;-76
2021/12/25 02:53:09;;;;;;;1246.67;589.70;;;;;;;4.09;74.81;94594.09;5061439;28;20316;-76
2021/12/25 02:55:36;;;;;;;1999.90;999.90;;;;;;;3.87;75.31;94562.91;5061209;28;20179;-76
2021/12/25 02:58:03;;;;;;;1631.23;768.10;;;;;;;4.16;75.32;94596.78;5064658;28;20209;-76
2021/12/25 03:00:43;;;;;;;1345.03;591.37;;;;;;;4.20;74.38;94592.03;5056671;28;20607;-76
2021/12/25 03:03:08;;;;;;;1999.90;999.90;;;;;;;4.11;74.55;94576.50;5062096;28;20614;-76
2021/12/25 03:05:36;;;;;;;1999.90;999.90;;;;;;;4.17;74.51;94604.44;5066761;28;20182;-76
2021/12/25 03:08:02;;;;;;;1999.90;999.90;;;;;;;4.02;74.50;94574.97;5060686;28;20213;-76
2021/12/25 03:10:28;;;;;;;1999.90;999.90;;;;;;;3.98;74.62;94567.69;5066883;28;20158;-76
2021/12/25 03:13:05;;;;;;;1523.00;740.13;;;;;;;3.93;75.49;94586.44;5071065;28;20538;-76
2021/12/25 03:15:45;;;;;;;1520.47;774.00;;;;;;;3.95;75.86;94597.50;5065395;28;20587;-76
2021/12/25 03:18:17;;;;;;;1457.90;746.00;;;;;;;4.15;75.44;94601.19;5062339;28;20224;-76
2021/12/25 03:20:46;;;;;;;580.13;305.57;;;;;;;3.92;76.11;94579.59;5070350;28;20196;-76
2021/12/25 03:23:16;;;;;;;517.73;352.07;;;;;;;4.01;76.42;94604.59;5067445;28;20182;-76
2021/12/25 03:25:44;;;;;;;471.23;267.33;;;;;;;4.03;76.22;94604.41;5064660;28;20175;-76
2021/12/25 03:28:10;;;;;;;408.50;259.73;;;;;;;3.86;76.52;94575.13;5067195;28;20260;-76
2021/12/25 03:30:39;;;;;;;342.57;227.53;;;;;;;3.96;77.13;94604.31;5064336;28;20211;-76
2021/12/25 03:33:07;;;;;;;407.47;246.23;;;;;;;4.01;76.67;94609.78;5062970;28;20189;-76
2021/12/25 03:35:34;;;;;;;334.87;206.63;;;;;;;3.96;76.40;94593.91;5067732;28;20178;-76
2021/12/25 03:38:01;;;;;;;313.90;218.53;;;;;;;3.86;76.18;94543.88;5067920;28;20175;-76
2021/12/25 03:40:27;;;;;;;344.07;213.90;;;;;;;4.17;76.07;94599.22;5058476;28;20179;-76
2021/12/25 03:42:52;;;;;;;429.20;231.10;;;;;;;4.30;75.57;94601.22;5061409;28;20528;-76
2021/12/25 03:45:18;;;;;;;464.07;245.30;;;;;;;4.24;75.61;94593.31;5064181;28;20183;-76
2021/12/25 03:47:46;;;;;;;502.07;275.17;;;;;;;4.18;75.33;94572.19;5068691;28;20202;-76
2021/12/25 03:58:20;;;;;;;645.43;294.63;;;;;;;4.20;75.51;94602.47;5057723;28;20174;-76
2021/12/25 04:00:47;;;;;;;418.97;270.00;;;;;;;4.12;75.80;94587.72;5054168;28;20166;-76
2021/12/25 04:03:37;;;;;;;403.43;238.37;;;;;;;4.31;75.44;94604.66;5064922;28;20171;-76
2021/12/25 04:06:08;;;;;;;513.23;223.20;;;;;;;4.22;75.79;94598.69;5065393;28;20747;-76
2021/12/25 04:08:40;;;;;;;388.80;256.83;;;;;;;4.27;75.46;94596.38;5060879;28;20190;-76
2021/12/25 04:11:12;;;;;;;424.33;239.67;;;;;;;4.31;75.62;94582.00;5066984;28;20167;-76
2021/12/25 04:13:37;;;;;;;390.07;230.53;;;;;;;4.37;75.21;94598.72;5072629;28;20154;-76
2021/12/25 04:16:05;;;;;;;415.13;271.67;;;;;;;4.40;74.92;94587.94;5070556;28;20182;-76
2021/12/25 04:18:31;;;;;;;531.60;344.23;;;;;;;4.48;74.71;94598.28;5062203;28;20178;-76
2021/12/25 04:20:56;;;;;;;711.37;345.63;;;;;;;4.36;74.69;94589.28;5066656;28;20187;-76
2021/12/25 04:23:27;;;;;;;759.83;334.20;;;;;;;4.27;75.08;94600.75;5060665;28;20183;-76
2021/12/25 04:25:57;;;;;;;152.47;109.97;;;;;;;4.36;75.55;94620.53;5055948;28;20241;-76
2021/12/25 04:50:06;;;;;;;831.20;355.17;;;;;;;4.77;73.48;94613.88;5059391;28;20659;-76
2021/12/25 05:03:44;;;;;;;1999.90;999.90;;;;;;;4.56;73.60;94624.25;5057409;28;20190;-76
2021/12/25 05:06:10;;;;;;;1999.90;999.90;;;;;;;4.70;73.78;94636.44;5060111;28;20193;-76
2021/12/25 05:08:35;;;;;;;1999.90;999.90;;;;;;;4.56;73.63;94621.63;5063028;28;20262;-76
2021/12/25 05:11:01;;;;;;;1999.90;999.90;;;;;;;4.71;73.58;94645.91;5057944;28;20632;-76
2021/12/25 05:13:26;;;;;;;1999.90;999.90;;;;;;;4.48;74.31;94647.78;5058360;28;20358;-76
2021/12/25 05:15:51;;;;;;;1580.20;773.67;;;;;;;4.45;74.68;94650.72;5065820;28;20661;-76
2021/12/25 05:18:17;;;;;;;774.53;329.90;;;;;;;4.55;74.73;94649.50;5056776;28;20175;-76
2021/12/25 05:20:42;;;;;;;1537.37;758.33;;;;;;;4.58;74.15;94665.75;5052860;28;20647;-76
2021/12/25 05:23:08;;;;;;;669.63;313.97;;;;;;;4.63;74.13;94664.22;5061192;28;20190;-76
2021/12/25 05:25:34;;;;;;;1999.90;999.90;;;;;;;4.53;74.09;94651.47;5066388;28;20622;-77
2021/12/25 05:28:02;;;;;;;1593.93;768.70;;;;;;;4.50;74.71;94659.63;5064392;28;20233;-76
2021/12/25 05:30:29;;;;;;;582.07;247.10;;;;;;;4.46;74.73;94662.78;5058606;28;20183;-76
2021/12/25 05:32:54;;;;;;;1498.37;725.07;;;;;;;4.46;74.10;94632.31;5063958;28;20163;-76
2021/12/25 05:35:20;;;;;;;1550.73;769.47;;;;;;;4.60;74.35;94650.75;5062517;28;20705;-76
2021/12/25 05:37:45;;;;;;;1999.90;999.90;;;;;;;4.62;74.41;94649.56;5065931;28;20173;-76
2021/12/25 05:40:12;;;;;;;1565.67;770.37;;;;;;;4.64;74.17;94655.44;5060298;28;20582;-76
2021/12/25 05:42:38;;;;;;;1666.10;779.80;;;;;;;4.64;74.29;94665.84;5059921;28;20182;-76
2021/12/25 05:45:04;;;;;;;1999.90;999.90;;;;;;;4.80;73.97;94668.28;5062825;28;20559;-76
2021/12/25 05:47:29;;;;;;;499.07;201.47;;;;;;;4.64;74.18;94654.63;5062364;28;20206;-76
2021/12/25 05:49:58;;;;;;;414.83;185.73;;;;;;;4.60;74.70;94669.78;5058377;28;20175;-76
2021/12/25 05:52:24;;;;;;;471.37;192.90;;;;;;;4.67;74.84;94664.69;5061135;28;20241;-76
2021/12/25 05:54:49;;;;;;;497.50;206.90;;;;;;;4.76;74.53;94674.84;5060987;28;20182;-76
2021/12/25 05:57:15;;;;;;;1541.20;752.80;;;;;;;4.76;74.22;94669.63;5061946;28;20182;-76
2021/12/25 05:59:40;;;;;;;1999.90;999.90;;;;;;;4.75;73.21;94651.56;5064200;28;20189;-76
2021/12/25 06:02:06;;;;;;;1572.10;762.77;;;;;;;4.63;73.60;94645.19;5058387;28;20182;-76
2021/12/25 06:04:32;;;;;;;1999.90;999.90;;;;;;;4.99;72.97;94692.19;5063217;28;20194;-76
2021/12/25 06:06:57;;;;;;;1308.93;609.00;;;;;;;5.07;73.04;94687.69;5064446;28;20213;-76
2021/12/25 06:09:23;;;;;;;1999.90;999.90;;;;;;;5.14;72.78;94682.56;5066921;28;20253;-76
2021/12/25 06:11:48;;;;;;;1609.17;767.27;;;;;;;5.14;72.75;94672.13;5060525;28;20213;-76
2021/12/25 06:14:19;;;;;;;937.87;420.93;;;;;;;5.07;72.41;94677.28;5060721;28;20190;-76
2021/12/25 06:16:46;;;;;;;1143.63;595.90;;;;;;;5.13;72.77;94679.13;5063552;28;20167;-76
2021/12/25 06:19:11;;;;;;;1259.70;594.17;;;;;;;5.02;73.08;94684.00;5060562;28;20265;-76
2021/12/25 06:21:37;;;;;;;1999.90;999.90;;;;;;;5.09;73.44;94708.41;5059016;28;20324;-76
2021/12/25 06:24:05;;;;;;;1999.90;999.90;;;;;;;5.03;73.43;94668.16;5062278;28;20178;-77
2021/12/25 06:26:32;;;;;;;1999.90;999.90;;;;;;;4.99;73.70;94679.16;5065903;28;20178;-76
2021/12/25 06:28:57;;;;;;;1999.90;999.90;;;;;;;4.98;73.91;94685.38;5067598;28;20627;-76
2021/12/25 06:31:23;;;;;;;1999.90;999.90;;;;;;;4.89;73.33;94656.78;5061495;28;20274;-76
2021/12/25 06:33:49;;;;;;;1999.90;999.90;;;;;;;5.09;73.35;94688.34;5058345;28;20171;-75
2021/12/25 06:36:15;;;;;;;1999.90;999.90;;;;;;;5.09;73.01;94671.88;5066113;28;20179;-76
2021/12/25 06:38:41;;;;;;;1333.93;642.47;;;;;;;5.08;72.84;94668.47;5059799;28;20171;-76
2021/12/25 06:41:07;;;;;;;762.17;377.73;;;;;;;5.25;72.64;94682.09;5060405;28;20174;-76
2021/12/25 06:43:34;;;;;;;648.10;350.87;;;;;;;5.27;72.59;94682.75;5067004;28;20163;-77
2021/12/25 06:45:59;;;;;;;411.80;239.03;;;;;;;5.34;72.38;94707.09;5063584;28;20235;-77
2021/12/25 06:48:26;;;;;;;1130.17;591.03;;;;;;;5.27;72.87;94701.00;5057640;28;20210;-77
2021/12/25 06:50:56;;;;;;;727.73;348.47;;;;;;;5.31;73.00;94694.41;5061391;28;20167;-76
2021/12/25 06:53:22;;;;;;;504.50;281.33;;;;;;;5.30;72.79;94687.56;5057986;28;21101;-77
2021/12/25 06:55:48;;;;;;;1448.33;740.33;;;;;;;5.30;72.39;94674.53;5061554;28;20674;-77
2021/12/25 06:58:13;;;;;;;348.00;223.87;;;;;;;5.44;72.62;94704.22;5059530;28;20174;-77
2021/12/25 07:00:39;;;;;;;1999.90;999.90;;;;;;;5.59;71.86;94703.19;5065305;28;20645;-77
2021/12/25 07:03:05;;;;;;;1999.90;999.90;;;;;;;5.69;71.61;94710.72;5063840;28;20183;-77
2021/12/25 07:05:30;;;;;;;1999.90;999.90;;;;;;;5.56;71.63;94703.53;5057882;28;20183;-77
2021/12/25 07:07:56;;;;;;;1999.90;999.90;;;;;;;5.71;72.34;94707.94;5069327;28;20200;-77
2021/12/25 07:10:22;;;;;;;1999.90;999.90;;;;;;;6.35;70.76;94711.41;5059505;28;20607;-77
2021/12/25 07:12:49;;;;;;;1999.90;999.90;;;;;;;6.95;67.76;94712.63;5066925;28;20170;-77
2021/12/25 07:15:16;;;;;;;145.77;103.20;;;;;;;7.19;66.18;94730.50;5064099;28;20523;-77
2021/12/25 07:17:42;;;;;;;98.53;46.70;;;;;;;7.13;64.96;94710.34;5062076;28;20170;-77
2021/12/25 07:20:09;;;;;;;92.97;43.90;;;;;;;7.07;65.67;94711.94;5059680;28;20266;-77
2021/12/25 07:22:34;;;;;;;93.90;49.07;;;;;;;7.13;65.72;94719.00;5061744;28;20300;-77
2021/12/25 07:25:00;;;;;;;102.73;48.77;;;;;;;7.15;66.13;94719.63;5067672;28;20249;-76
2021/12/25 07:27:25;;;;;;;140.53;65.90;;;;;;;7.07;66.25;94724.19;5060909;28;20195;-77
2021/12/25 07:29:51;;;;;;;100.27;44.40;;;;;;;6.93;66.46;94697.13;5058701;28;20693;-77
2021/12/25 07:32:17;;;;;;;59.57;28.07;;;;;;;7.07;66.25;94727.63;5050838;28;20266;-77
2021/12/25 07:34:45;;;;;;;44.13;22.13;;;;;;;6.94;66.52;94716.25;5055166;28;20680;-77
2021/12/25 07:37:12;;;;;;;41.83;21.43;;;;;;;7.01;66.85;94725.75;5062076;28;20159;-77
2021/12/25 07:39:37;;;;;;;37.63;20.50;;;;;;;6.94;66.07;94711.81;5067969;28;20246;-77
2021/12/25 07:42:03;;;;;;;44.33;21.03;;;;;;;7.08;65.85;94731.88;5055792;28;20232;-76
2021/12/25 07:44:29;;;;;;;64.63;29.93;;;;;;;6.87;65.73;94704.94;5057951;28;20175;-76
2021/12/25 07:46:54;;;;;;;48.37;25.17;;;;;;;7.09;65.36;94745.75;5067038;28;20206;-76
2021/12/25 07:49:21;;;;;;;54.73;25.73;;;;;;;7.07;66.03;94726.81;5055885;28;20201;-75
2021/12/25 07:51:47;;;;;;;55.17;28.60;;;;;;;7.81;66.36;94712.03;5063724;28;20174;-75
2021/12/25 07:54:13;;;;;;;61.00;28.20;;;;;;;10.08;58.60;94744.75;5066381;28;20266;-76
2021/12/25 07:56:39;;;;;;;22.20;13.80;;;;;;;11.14;52.39;94743.03;5059997;28;20175;-76
2021/12/25 07:59:05;;;;;;;54.03;29.20;;;;;;;11.33;51.97;94735.91;5055574;28;20927;-76
2021/12/25 08:01:34;;;;;;;20.57;12.10;;;;;;;11.58;50.01;94733.25;5059219;28;20194;-76
2021/12/25 08:04:00;;;;;;;31.37;16.63;;;;;;;12.19;49.18;94745.53;5046263;28;20273;-76
2021/12/25 08:06:26;;;;;;;50.10;27.17;;;;;;;12.28;48.13;94744.97;5056443;28;20178;-76
2021/12/25 08:08:55;;;;;;;20.07;12.40;;;;;;;11.97;48.26;94747.84;5056121;28;20227;-76
2021/12/25 08:11:20;;;;;;;13.53;7.90;;;;;;;11.91;48.46;94738.97;5056669;28;20979;-77
2021/12/25 08:13:45;;;;;;;11.07;7.00;;;;;;;12.30;47.52;94750.84;5057509;28;20179;-77
2021/12/25 08:16:11;;;;;;;14.47;8.50;;;;;;;12.29;47.13;94751.06;5063250;28;20175;-77
2021/12/25 08:18:36;;;;;;;9.57;6.40;;;;;;;11.81;48.12;94741.31;5060811;28;20232;-77
2021/12/25 08:21:04;;;;;;;10.77;6.80;;;;;;;11.53;48.26;94739.16;5064621;28;20596;-76
2021/12/25 08:23:30;;;;;;;11.33;5.83;;;;;;;11.67;48.68;94735.38;5063343;28;20182;-76
2021/12/25 08:25:57;;;;;;;11.97;6.10;;;;;;;11.84;49.13;94738.25;5061019;28;20179;-76
2021/12/25 08:28:22;;;;;;;9.13;5.73;;;;;;;12.30;48.22;94747.41;5063261;28;20199;-77
2021/12/25 08:30:48;;;;;;;10.23;6.43;;;;;;;12.64;47.75;94733.50;5059137;28;20197;-77
2021/12/25 08:33:13;;;;;;;11.00;6.43;;;;;;;12.95;46.31;94750.91;5064463;28;20174;-78
2021/12/25 08:35:39;;;;;;;10.70;5.57;;;;;;;12.49;45.98;94751.59;5061327;28;20681;-77
2021/12/25 08:38:04;;;;;;;10.67;5.57;;;;;;;12.17;46.87;94735.19;5061541;28;20637;-77
2021/12/25 08:40:30;;;;;;;12.40;5.53;;;;;;;11.77;47.33;94703.22;5060480;28;20178;-77
2021/12/25 08:43:01;;;;;;;13.43;6.13;;;;;;;11.79;48.14;94739.94;5056926;28;20206;-77
2021/12/25 08:48:26;;;;;;;10.37;5.87;;;;;;;11.69;47.68;94738.59;5061441;28;20269;-77
2021/12/25 08:50:56;;;;;;;8.57;5.27;;;;;;;11.46;48.69;94727.91;5065176;28;20167;-77
2021/12/25 08:53:24;;;;;;;8.47;5.60;;;;;;;11.16;49.55;94734.88;5063242;28;20222;-76
2021/12/25 08:55:51;;;;;;;12.80;6.33;;;;;;;10.92;49.75;94723.34;5053461;28;20183;-77
2021/12/25 08:58:17;;;;;;;9.47;5.97;;;;;;;10.79;50.69;94721.66;5060591;28;20233;-77
2021/12/25 09:00:43;;;;;;;7.83;5.20;;;;;;;10.87;50.69;94726.63;5065880;28;20178;-77
2021/12/25 09:03:09;;;;;;;9.57;6.13;;;;;;;10.95;51.64;94718.47;5061234;28;20185;-77
2021/12/25 09:05:36;;;;;;;9.53;6.40;;;;;;;11.27;50.21;94719.16;5053453;28;20606;-78
2021/12/25 09:08:03;;;;;;;10.73;5.23;;;;;;;11.11;50.68;94705.75;5062463;28;20248;-77
2021/12/25 09:10:29;;;;;;;12.47;5.93;;;;;;;11.03;50.45;94667.34;5057906;28;20580;-77
2021/12/25 09:13:43;;;;;;;9.63;5.33;;;;;;;11.22;50.36;94703.22;5061502;28;20585;-78
2021/12/25 09:16:09;;;;;;;11.47;5.07;;;;;;;11.00;49.72;94695.94;5059208;28;20174;-77
2021/12/25 09:18:34;;;;;;;12.10;5.70;;;;;;;10.58;50.93;94682.53;5056730;28;20594;-77
2021/12/25 09:21:00;;;;;;;11.93;5.97;;;;;;;10.64;51.15;94702.72;5056724;28;20211;-77
2021/12/25 09:23:26;;;;;;;11.27;4.90;;;;;;;10.55;51.11;94673.22;5058612;28;21068;-76
2021/12/25 09:25:51;;;;;;;9.33;5.37;;;;;;;10.70;51.85;94686.06;5051975;28;20631;-77
2021/12/25 09:28:18;;;;;;;10.27;5.80;;;;;;;10.67;51.13;94688.31;5059849;28;20205;-77
2021/12/25 09:30:44;;;;;;;9.10;5.00;;;;;;;10.63;50.92;94669.53;5058564;28;20610;-76
2021/12/25 09:33:10;;;;;;;13.43;5.10;;;;;;;10.43;52.31;94682.03;5056746;28;20203;-77
2021/12/25 09:35:35;;;;;;;11.93;5.57;;;;;;;9.58;53.06;94605.28;5058531;28;20257;-77
2021/12/25 09:38:01;;;;;;;7.70;5.20;;;;;;;10.04;53.25;94688.31;5057822;28;20167;-76
2021/12/25 09:40:27;;;;;;;7.43;4.70;;;;;;;9.95;53.62;94666.72;5057276;28;20167;-76
2021/12/25 09:42:55;;;;;;;9.47;5.90;;;;;;;9.81;53.46;94652.06;5059571;28;20197;-77
2021/12/25 09:45:21;;;;;;;15.90;6.00;;;;;;;9.89;53.94;94648.38;5063237;28;20714;-77
2021/12/25 09:47:46;;;;;;;10.03;5.93;;;;;;;10.02;53.80;94653.56;5059349;28;20202;-78
2021/12/25 09:50:12;;;;;;;12.10;5.47;;;;;;;10.09;53.30;94644.59;5061280;28;20177;-78
2021/12/25 09:52:39;;;;;;;10.60;5.77;;;;;;;9.96;53.71;94668.34;5057716;28;20300;-77
2021/12/25 09:55:05;;;;;;;10.40;4.83;;;;;;;9.99;53.87;94659.22;5057584;28;20317;-77
2021/12/25 09:57:31;;;;;;;11.57;5.00;;;;;;;9.95;53.20;94639.63;5061957;28;20555;-78
2021/12/25 10:00:04;;;;;;;9.80;6.17;;;;;;;10.20;54.22;94651.03;5059456;28;20175;-77
2021/12/25 10:02:45;;;;;;;11.90;6.80;;;;;;;10.33;52.92;94650.13;5059492;28;20312;-77
2021/12/25 10:05:11;;;;;;;12.53;6.50;;;;;;;10.47;52.91;94656.88;5061321;28;20236;-77
2021/12/25 10:07:37;;;;;;;10.00;5.77;;;;;;;10.49;52.47;94620.66;5067149;28;21037;-78
2021/12/25 10:10:10;;;;;;;13.23;6.00;;;;;;;10.70;51.81;94625.53;5061557;28;20622;-79
2021/12/25 10:12:42;;;;;;;12.83;6.53;;;;;;;10.64;52.03;94639.53;5060595;28;20166;-78
2021/12/25 10:15:15;;;;;;;13.53;5.67;;;;;;;10.46;52.38;94632.44;5058172;28;20189;-78
2021/12/25 10:17:50;;;;;;;12.67;5.87;;;;;;;10.33;52.60;94623.81;5065245;28;20220;-78
2021/12/25 10:20:21;;;;;;;10.87;6.63;;;;;;;10.20;53.24;94615.00;5064891;28;20158;-78
2021/12/25 10:23:10;;;;;;;11.67;6.43;;;;;;;10.23;53.44;94620.84;5066390;28;20179;-78
2021/12/25 10:25:49;;;;;;;13.87;6.87;;;;;;;10.37;53.60;94630.28;5064996;28;20634;-78
2021/12/25 10:28:20;;;;;;;13.53;6.47;;;;;;;10.33;52.68;94594.88;5068946;28;20244;-78
2021/12/25 10:30:45;;;;;;;9.83;6.03;;;;;;;10.43;52.51;94597.84;5056284;28;20166;-78
2021/12/25 10:33:23;;;;;;;12.47;6.83;;;;;;;10.47;52.90;94615.59;5059784;28;20177;-78
2021/12/25 10:35:49;;;;;;;10.40;6.27;;;;;;;10.31;52.64;94584.56;5057790;28;20186;-78
2021/12/25 10:38:17;;;;;;;19.03;7.40;;;;;;;10.27;52.73;94603.63;5066319;28;20646;-78
2021/12/25 10:40:44;;;;;;;12.47;7.43;;;;;;;10.35;53.43;94619.97;5043253;28;20279;-78
2021/12/25 10:43:20;;;;;;;13.50;8.23;;;;;;;10.41;53.51;94610.38;5057713;28;20187;-77
2021/12/25 10:46:02;;;;;;;11.67;7.60;;;;;;;10.31;52.86;94605.63;5061885;28;20181;-77
2021/12/25 10:48:29;;;;;;;15.53;9.03;;;;;;;10.38;53.19;94609.00;5061093;28;20222;-77
2021/12/25 10:50:56;;;;;;;24.27;9.80;;;;;;;10.50;54.06;94599.38;5058082;28;20642;-78
2021/12/25 10:53:23;;;;;;;17.27;8.73;;;;;;;10.59;52.90;94602.53;5064154;28;20672;-78
2021/12/25 10:55:49;;;;;;;13.67;7.67;;;;;;;10.38;52.88;94589.78;5051860;28;20614;-78
2021/12/25 10:58:24;;;;;;;15.00;7.90;;;;;;;10.26;53.54;94600.19;5057350;28;20661;-77
2021/12/25 11:00:58;;;;;;;17.07;9.17;;;;;;;10.23;53.71;94568.25;5055098;28;20182;-78
2021/12/25 11:03:30;;;;;;;18.93;9.40;;;;;;;10.62;53.98;94594.22;5056642;28;20225;-78
2021/12/25 11:06:05;;;;;;;16.67;8.00;;;;;;;10.59;53.73;94576.22;5058797;28;20211;-78
2021/12/25 11:08:32;;;;;;;16.97;8.67;;;;;;;10.84;53.03;94576.16;5057749;28;20182;-79
2021/12/25 11:10:59;;;;;;;13.73;7.20;;;;;;;10.78;52.46;94563.88;5056206;28;20183;-79
2021/12/25 11:13:50;;;;;;;16.67;7.70;;;;;;;10.73;52.20;94554.00;5064585;28;20193;-78
2021/12/25 11:16:28;;;;;;;11.93;7.27;;;;;;;10.71;52.72;94553.44;5060683;28;20178;-78
2021/12/25 11:19:08;;;;;;;12.20;7.40;;;;;;;10.59;53.00;94561.22;5061587;28;20163;-79
2021/12/25 11:21:59;;;;;;;13.03;7.13;;;;;;;10.61;53.15;94555.75;5060746;28;20258;-80
2021/12/25 11:24:36;;;;;;;15.97;9.03;;;;;;;10.66;52.95;94555.91;5058254;28;20190;-79
2021/12/25 11:27:06;;;;;;;16.53;10.17;;;;;;;10.71;52.71;94545.53;5066752;28;20197;-79
2021/12/25 11:29:36;;;;;;;19.77;10.40;;;;;;;10.64;53.21;94538.72;5064138;28;20178;-80
2021/12/25 11:32:04;;;;;;;23.27;11.67;;;;;;;10.40;53.33;94498.28;5057956;28;20167;-80
2021/12/25 11:34:31;;;;;;;25.10;12.33;;;;;;;10.32;54.09;94522.22;5063067;28;20166;-81
2021/12/25 11:37:00;;;;;;;23.10;11.80;;;;;;;10.35;55.73;94524.44;5063223;28;20175;-82
2021/12/25 11:39:29;;;;;;;29.87;12.00;;;;;;;10.45;54.15;94517.66;5060396;28;20178;-80
2021/12/25 11:42:02;;;;;;;28.10;11.60;;;;;;;10.67;54.31;94525.13;5058202;28;20661;-81
2021/12/25 11:44:36;;;;;;;19.30;11.90;;;;;;;10.58;53.83;94499.09;5060046;28;20171;-81
2021/12/25 11:47:03;;;;;;;34.07;13.17;;;;;;;10.56;54.54;94510.84;5057771;28;20752;-80
2021/12/25 11:49:29;;;;;;;20.20;12.20;;;;;;;10.59;54.31;94518.31;5059558;28;20171;-80
2021/12/25 11:52:14;;;;;;;23.77;12.50;;;;;;;10.45;55.33;94499.25;5062295;28;20229;-80
2021/12/25 11:55:00;;;;;;;23.57;12.13;;;;;;;10.61;54.67;94500.47;5062185;28;20214;-79
2021/12/25 11:58:19;;;;;;;19.30;10.30;;;;;;;10.89;54.95;94521.84;5058365;28;20171;-80
2021/12/25 12:00:52;;;;;;;24.53;11.40;;;;;;;11.03;54.29;94516.41;5061619;28;20190;-80
2021/12/25 12:03:44;;;;;;;25.73;11.83;;;;;;;11.03;54.56;94519.84;5058082;28;20228;-79
2021/12/25 12:06:14;;;;;;;18.33;9.77;;;;;;;10.87;54.65;94526.50;5065405;28;20170;-79
2021/12/25 12:08:55;;;;;;;23.70;10.77;;;;;;;10.84;55.53;94523.50;5063450;28;20190;-78
2021/12/25 12:11:26;;;;;;;21.77;10.60;;;;;;;10.75;54.43;94515.09;5053112;28;20664;-79
2021/12/25 12:14:18;;;;;;;22.00;9.30;;;;;;;10.80;54.62;94514.47;5053613;28;20163;-80
2021/12/25 12:16:47;;;;;;;18.00;8.30;;;;;;;10.76;54.99;94521.97;5059126;28;20159;-80
2021/12/25 12:19:36;;;;;;;16.63;9.20;;;;;;;10.79;55.30;94526.81;5051919;28;20171;-79
2021/12/25 12:27:39;;;;;;;16.20;8.30;;;;;;;11.11;54.79;94537.16;5059843;28;20201;-80
2021/12/25 12:30:29;;;;;;;17.07;7.63;;;;;;;11.17;55.61;94518.63;5059357;28;20179;-80
2021/12/25 12:32:55;;;;;;;18.13;8.50;;;;;;;11.21;54.92;94525.06;5058914;28;20179;-80